createdAt,value
2022-10-14T00:02:35.754Z,70.00
2022-10-14T00:07:39.537Z,70.00
2022-10-14T00:12:42.905Z,70.60
2022-10-14T00:17:47.637Z,70.30
2022-10-14T00:22:51.272Z,71.30
2022-10-14T00:27:54.644Z,70.20
2022-10-14T00:32:59.330Z,70.20
2022-10-14T00:38:02.664Z,70.70
2022-10-14T00:43:10.209Z,71.20
2022-10-14T00:48:15.772Z,71.60
2022-10-14T00:53:20.081Z,71.10
2022-10-14T00:58:23.454Z,70.90
2022-10-14T01:03:28.200Z,70.90
2022-10-14T01:08:41.170Z,71.10
2022-10-14T01:13:51.770Z,70.90
2022-10-14T01:19:07.460Z,72.70
2022-10-14T01:24:33.779Z,71.20
2022-10-14T01:30:13.397Z,70.90
2022-10-14T01:35:26.940Z,71.40
2022-10-14T01:40:36.361Z,71.40
2022-10-14T01:45:43.046Z,71.60
2022-10-14T01:50:50.685Z,71.60
2022-10-14T01:55:57.320Z,71.40
2022-10-14T02:01:03.410Z,71.70
2022-10-14T02:06:12.589Z,71.90
2022-10-14T02:11:18.271Z,72.20
2022-10-14T02:16:30.724Z,72.00
2022-10-14T02:21:42.202Z,71.80
2022-10-14T02:26:46.473Z,71.50
2022-10-14T02:31:52.117Z,71.90
2022-10-14T02:36:57.281Z,72.20
2022-10-14T02:42:00.655Z,72.40
2022-10-14T02:47:04.221Z,72.60
2022-10-14T02:52:08.843Z,71.90
2022-10-14T02:57:12.523Z,72.00
2022-10-14T03:02:16.406Z,72.20
2022-10-14T03:07:21.360Z,72.40
2022-10-14T03:12:24.980Z,72.70
2022-10-14T03:17:28.395Z,72.70
2022-10-14T03:22:33.411Z,72.50
2022-10-14T03:27:36.792Z,72.30
2022-10-14T03:32:40.064Z,73.10
2022-10-14T03:37:45.040Z,72.90
2022-10-14T03:42:48.412Z,72.90
2022-10-14T03:47:51.989Z,72.80
2022-10-14T03:52:56.916Z,72.50
2022-10-14T03:58:00.436Z,72.50
2022-10-14T04:03:03.852Z,72.90
2022-10-14T04:08:08.884Z,73.10
2022-10-14T04:13:12.589Z,73.00
2022-10-14T04:18:16.068Z,73.10
2022-10-14T04:23:20.716Z,73.80
2022-10-14T04:28:24.171Z,73.70
2022-10-14T04:33:27.823Z,73.80
2022-10-14T04:38:32.704Z,73.70
2022-10-14T04:43:36.095Z,73.80
2022-10-14T04:48:39.565Z,74.10
2022-10-14T04:53:44.574Z,75.50
2022-10-14T04:58:48.119Z,74.90
2022-10-14T05:03:52.307Z,74.60
2022-10-14T05:08:57.259Z,74.20
2022-10-14T05:14:00.675Z,74.30
2022-10-14T05:19:04.114Z,74.60
2022-10-14T05:24:09.220Z,74.60
2022-10-14T05:29:13.055Z,74.40
2022-10-14T05:34:17.411Z,74.40
2022-10-14T05:39:22.174Z,74.50
2022-10-14T05:44:25.505Z,74.50
2022-10-14T05:49:29.101Z,74.70
2022-10-14T05:54:36.717Z,74.60
2022-10-14T05:59:40.514Z,74.50
2022-10-14T06:04:44.022Z,74.40
2022-10-14T06:09:48.859Z,74.70
2022-10-14T06:14:52.220Z,74.60
2022-10-14T06:19:55.933Z,74.50
2022-10-14T06:25:04.306Z,74.30
2022-10-14T06:30:09.332Z,74.60
2022-10-14T06:35:13.328Z,74.80
2022-10-14T06:40:20.028Z,74.90
2022-10-14T06:45:23.644Z,75.20
2022-10-14T06:50:27.277Z,75.40
2022-10-14T06:55:32.109Z,75.60
2022-10-14T07:00:37.278Z,75.60
2022-10-14T07:05:40.925Z,75.50
2022-10-14T07:10:47.995Z,75.40
2022-10-14T07:15:52.369Z,75.50
2022-10-14T07:20:55.997Z,75.80
2022-10-14T07:26:01.395Z,75.90
2022-10-14T07:31:07.060Z,75.90
2022-10-14T07:36:15.141Z,75.70
2022-10-14T07:41:24.444Z,77.10
2022-10-14T07:46:32.334Z,76.60
2022-10-14T07:51:36.750Z,76.60
2022-10-14T07:56:43.253Z,76.30
2022-10-14T08:01:48.467Z,76.70
2022-10-14T08:06:53.444Z,77.00
2022-10-14T08:11:58.250Z,76.80
2022-10-14T08:17:01.659Z,77.10
2022-10-14T08:22:05.610Z,77.30
2022-10-14T08:27:11.527Z,77.80
2022-10-14T08:32:15.381Z,77.70
2022-10-14T08:37:18.744Z,77.70
2022-10-14T08:42:32.263Z,77.40
2022-10-14T08:47:38.671Z,77.30
2022-10-14T08:52:46.813Z,77.00
2022-10-14T08:57:55.094Z,76.80
2022-10-14T09:03:01.092Z,77.20
2022-10-14T09:08:04.550Z,76.80
2022-10-14T09:13:15.002Z,76.90
2022-10-14T09:18:24.769Z,76.40
2022-10-14T09:23:29.108Z,76.60
2022-10-14T09:28:38.496Z,76.60
2022-10-14T09:33:43.743Z,76.50
2022-10-14T09:38:48.255Z,76.30
2022-10-14T09:44:22.770Z,75.90
2022-10-14T09:49:36.199Z,75.50
2022-10-14T09:54:40.240Z,74.40
2022-10-14T09:59:55.800Z,74.10
2022-10-14T10:04:59.614Z,74.00
2022-10-14T10:10:05.628Z,73.20
2022-10-14T10:15:20.028Z,72.80
2022-10-14T10:20:31.929Z,72.00
2022-10-14T10:25:35.353Z,71.10
2022-10-14T10:30:46.356Z,70.70
2022-10-14T10:36:15.257Z,70.00
2022-10-14T10:41:30.744Z,69.60
2022-10-14T10:46:51.442Z,69.10
2022-10-14T10:51:58.147Z,68.90
2022-10-14T10:57:08.667Z,67.70
2022-10-14T11:02:50.289Z,67.00
2022-10-14T11:08:17.151Z,66.50
2022-10-14T11:13:29.300Z,65.30
2022-10-14T11:18:47.819Z,65.50
2022-10-14T11:24:02.943Z,64.10
2022-10-14T11:29:13.750Z,62.80
2022-10-14T11:34:42.654Z,63.00
2022-10-14T11:39:49.927Z,62.40
2022-10-14T11:45:21.558Z,62.60
2022-10-14T11:50:30.214Z,62.20
2022-10-14T11:55:40.020Z,60.40
2022-10-14T12:01:05.535Z,60.90
2022-10-14T12:06:17.052Z,62.30
2022-10-14T12:11:29.319Z,62.30
2022-10-14T12:16:33.920Z,61.00
2022-10-14T12:21:49.832Z,60.40
2022-10-14T12:26:57.202Z,60.70
2022-10-14T12:32:21.490Z,60.20
2022-10-14T12:43:20.408Z,60.50
2022-10-14T12:48:25.363Z,59.70
2022-10-14T12:53:33.397Z,59.90
2022-10-14T12:58:41.518Z,59.60
2022-10-14T13:03:48.554Z,60.40
2022-10-14T13:09:39.886Z,59.30
2022-10-14T13:14:59.786Z,58.60
2022-10-14T13:20:04.637Z,57.50
2022-10-14T13:25:21.308Z,56.20
2022-10-14T13:30:36.310Z,55.80
2022-10-14T13:35:49.870Z,56.00
2022-10-14T13:40:55.597Z,54.80
2022-10-14T13:46:06.787Z,54.60
2022-10-14T13:51:44.042Z,54.50
2022-10-14T14:02:27.324Z,52.70
2022-10-14T14:13:02.985Z,53.10
2022-10-14T14:18:38.101Z,53.20
2022-10-14T14:23:54.325Z,53.90
2022-10-14T14:28:57.746Z,54.10
2022-10-14T14:34:02.637Z,53.80
2022-10-14T14:39:05.946Z,53.30
2022-10-14T14:44:25.018Z,53.20
2022-10-14T14:49:32.992Z,52.50
2022-10-14T14:54:47.775Z,52.70
2022-10-14T15:00:01.714Z,52.70
2022-10-14T15:05:10.567Z,53.60
2022-10-14T15:10:23.521Z,54.80
2022-10-14T15:15:30.505Z,54.40
2022-10-14T15:20:37.014Z,54.70
2022-10-14T15:25:40.335Z,54.10
2022-10-14T15:30:53.940Z,54.10
2022-10-14T15:36:01.730Z,55.00
2022-10-14T15:41:06.024Z,55.40
2022-10-14T15:46:31.621Z,55.70
2022-10-14T15:51:36.567Z,55.90
2022-10-14T15:56:40.451Z,56.10
2022-10-14T16:01:46.130Z,56.50
2022-10-14T16:06:54.553Z,56.60
2022-10-14T16:12:00.885Z,56.70
2022-10-14T16:17:04.432Z,56.70
2022-10-14T16:22:10.589Z,56.90
2022-10-14T16:27:13.880Z,57.10
2022-10-14T16:32:18.461Z,57.30
2022-10-14T16:37:23.772Z,57.50
2022-10-14T16:42:27.767Z,57.50
2022-10-14T16:47:32.127Z,57.40
2022-10-14T16:52:51.062Z,57.30
2022-10-14T16:57:55.325Z,57.30
2022-10-14T17:02:59.253Z,57.40
2022-10-14T17:08:04.532Z,57.80
2022-10-14T17:13:08.218Z,57.90
2022-10-14T17:18:12.558Z,58.10
2022-10-14T17:23:17.346Z,58.30
2022-10-14T17:28:20.702Z,58.60
2022-10-14T17:33:26.150Z,59.00
2022-10-14T17:38:31.783Z,59.20
2022-10-14T17:43:35.390Z,59.70
2022-10-14T17:48:42.559Z,60.20
2022-10-14T17:53:47.703Z,60.60
2022-10-14T17:58:54.216Z,60.80
2022-10-14T18:03:58.483Z,61.00
2022-10-14T18:09:05.337Z,61.10
2022-10-14T18:14:11.137Z,61.40
2022-10-14T18:19:16.962Z,61.60
2022-10-14T18:24:21.687Z,61.90
2022-10-14T18:29:25.495Z,62.00
2022-10-14T18:34:28.929Z,62.30
2022-10-14T18:39:34.093Z,62.60
2022-10-14T18:44:37.352Z,62.70
2022-10-14T18:49:40.983Z,62.80
2022-10-14T18:54:45.725Z,62.90
2022-10-14T18:59:51.291Z,63.30
2022-10-14T19:04:56.096Z,63.60
2022-10-14T19:10:01.016Z,63.70
2022-10-14T19:15:04.440Z,64.10
2022-10-14T19:20:08.522Z,64.00
2022-10-14T19:25:13.156Z,64.30
2022-10-14T19:30:16.907Z,64.80
2022-10-14T19:35:21.710Z,65.00
2022-10-14T19:40:26.996Z,65.60
2022-10-14T19:45:30.298Z,66.20
2022-10-14T19:50:34.315Z,66.40
2022-10-14T19:55:39.557Z,66.60
2022-10-14T20:00:43.127Z,66.80
2022-10-14T20:05:46.759Z,66.90
2022-10-14T20:10:51.469Z,67.30
2022-10-14T20:15:55.630Z,67.40
2022-10-14T20:20:59.002Z,67.50
2022-10-14T20:26:06.241Z,67.90
2022-10-14T20:31:11.417Z,68.50
2022-10-14T20:36:16.780Z,69.00
2022-10-14T20:41:24.240Z,69.30
2022-10-14T20:46:27.626Z,69.70
2022-10-14T20:51:31.634Z,69.80
2022-10-14T20:56:38.010Z,69.80
2022-10-14T21:01:41.802Z,69.90
2022-10-14T21:06:45.457Z,70.20
2022-10-14T21:11:50.239Z,70.10
2022-10-14T21:16:53.713Z,71.30
2022-10-14T21:21:57.407Z,70.20
2022-10-14T21:27:02.507Z,70.30
2022-10-14T21:32:06.476Z,70.30
2022-10-14T21:37:09.800Z,70.40
2022-10-14T21:42:14.647Z,70.60
2022-10-14T21:47:18.017Z,70.50
2022-10-14T21:52:21.878Z,70.50
2022-10-14T21:57:26.864Z,70.40
2022-10-14T22:02:30.143Z,70.50
2022-10-14T22:07:33.525Z,70.70
2022-10-14T22:12:38.244Z,70.70
2022-10-14T22:17:41.806Z,70.70
2022-10-14T22:22:45.602Z,70.80
2022-10-14T22:27:50.508Z,71.00
2022-10-14T22:32:54.156Z,71.10
2022-10-14T22:37:57.513Z,70.80
2022-10-14T22:43:02.296Z,70.70
2022-10-14T22:48:06.091Z,70.80
2022-10-14T22:53:09.489Z,70.90
2022-10-14T22:58:14.401Z,70.90
2022-10-14T23:03:17.852Z,71.10
2022-10-14T23:08:21.241Z,70.90
2022-10-14T23:13:26.251Z,71.10
2022-10-14T23:18:31.187Z,71.10
2022-10-14T23:23:34.777Z,71.40
2022-10-14T23:28:40.624Z,71.40
2022-10-14T23:33:44.509Z,71.60
2022-10-14T23:38:48.276Z,71.50
2022-10-14T23:43:53.495Z,71.40
2022-10-14T23:49:07.310Z,71.70
2022-10-14T23:54:17.721Z,71.70
2022-10-14T23:59:22.514Z,71.80
